Time;durP1;ratioP1;P1;durP2;ratioP2;P2;SDS_P1;SDS_P2;PMS_P1;PMS_P2;Temp;Humidity;BMP_temperature;BMP_pressure;BME280_temperature;BME280_humidity;BME280_pressure;Samples;Min_cycle;Max_cycle;Signal;HPM_P1;HPM_P2
2021/11/11 00:01:14;;;;;;;11.45;7.78;;;;;;;4.43;58.13;96968.59;5049595;28;20404;-81
2021/11/11 00:03:39;;;;;;;11.38;7.88;;;;;;;4.52;57.82;96967.16;5049576;28;20021;-80
2021/11/11 00:06:05;;;;;;;13.18;7.45;;;;;;;4.50;57.68;96961.06;5049940;28;20422;-80
2021/11/11 00:08:30;;;;;;;10.77;7.40;;;;;;;4.43;58.17;96960.63;5048981;28;20407;-81
2021/11/11 00:10:56;;;;;;;12.07;7.60;;;;;;;4.35;58.12;96962.09;5049381;28;20029;-81
2021/11/11 00:13:21;;;;;;;12.73;7.80;;;;;;;4.30;58.23;96970.38;5049687;28;20035;-80
2021/11/11 00:15:48;;;;;;;11.20;7.85;;;;;;;4.33;58.23;96956.88;5047883;28;20655;-82
2021/11/11 00:18:13;;;;;;;10.13;7.57;;;;;;;4.30;57.98;96962.41;5049298;28;20488;-80
2021/11/11 00:20:39;;;;;;;12.40;8.20;;;;;;;4.38;58.09;96962.75;5048630;28;20024;-81
2021/11/11 00:23:04;;;;;;;11.27;7.93;;;;;;;4.35;57.91;96957.63;5049244;28;20025;-81
2021/11/11 00:25:30;;;;;;;12.00;8.23;;;;;;;4.37;57.81;96955.72;5048945;28;20584;-82
2021/11/11 00:27:56;;;;;;;10.95;8.10;;;;;;;4.38;57.42;96956.56;5048954;28;20608;-78
2021/11/11 00:30:22;;;;;;;13.52;8.55;;;;;;;4.29;57.57;96964.19;5030686;28;20021;-79
2021/11/11 00:32:49;;;;;;;11.55;8.35;;;;;;;4.31;58.15;96956.97;5047252;28;20083;-78
2021/11/11 00:35:17;;;;;;;11.70;7.45;;;;;;;4.39;57.15;96955.63;5031046;28;20044;-80
2021/11/11 00:37:43;;;;;;;13.13;8.32;;;;;;;4.32;57.17;96958.66;5048334;28;20029;-78
2021/11/11 00:40:09;;;;;;;10.15;7.63;;;;;;;4.32;57.30;96956.00;5030860;28;20078;-80
2021/11/11 00:42:35;;;;;;;10.73;7.40;;;;;;;4.29;56.84;96952.69;5030843;28;20033;-80
2021/11/11 00:45:00;;;;;;;11.10;7.60;;;;;;;4.31;57.17;96951.66;5030443;28;20415;-81
2021/11/11 00:47:26;;;;;;;10.30;6.72;;;;;;;4.32;56.37;96952.53;5047173;28;20021;-79
2021/11/11 00:49:51;;;;;;;10.23;6.72;;;;;;;4.27;56.91;96955.47;5048673;28;20021;-76
2021/11/11 00:52:17;;;;;;;10.38;6.43;;;;;;;4.25;56.51;96954.72;5047025;28;20013;-78
2021/11/11 00:54:43;;;;;;;9.18;6.38;;;;;;;4.19;56.23;96944.50;5046975;28;20028;-78
2021/11/11 00:57:09;;;;;;;8.82;6.28;;;;;;;4.20;56.86;96946.19;5030481;28;20074;-77
2021/11/11 00:59:34;;;;;;;10.25;6.38;;;;;;;4.07;57.00;96941.69;5046929;28;20028;-79
2021/11/11 01:02:02;;;;;;;10.35;7.07;;;;;;;4.07;57.59;96939.03;5046996;28;20025;-78
2021/11/11 01:04:28;;;;;;;9.75;6.72;;;;;;;4.08;57.54;96937.22;5047820;28;20105;-79
2021/11/11 01:06:53;;;;;;;11.40;7.15;;;;;;;4.07;57.86;96939.03;5046979;28;20025;-77
2021/11/11 01:09:18;;;;;;;9.52;6.78;;;;;;;4.02;57.64;96941.13;5046612;28;20038;-79
2021/11/11 01:11:44;;;;;;;9.10;6.57;;;;;;;3.98;57.64;96936.13;5030040;28;20021;-79
2021/11/11 01:14:09;;;;;;;10.68;6.97;;;;;;;3.95;57.91;96942.44;5048244;28;20021;-78
2021/11/11 01:16:35;;;;;;;10.43;6.82;;;;;;;3.99;57.77;96943.13;5047208;28;20082;-77
2021/11/11 01:19:00;;;;;;;9.07;6.38;;;;;;;3.92;58.03;96938.22;5048302;28;20064;-78
2021/11/11 01:21:26;;;;;;;13.02;6.95;;;;;;;3.94;57.65;96943.41;5046933;28;20025;-77
2021/11/11 01:23:53;;;;;;;9.35;6.75;;;;;;;3.91;57.37;96936.50;5048161;28;20032;-78
2021/11/11 01:26:19;;;;;;;9.63;6.32;;;;;;;3.94;57.15;96933.66;5030513;28;20033;-78
2021/11/11 01:28:44;;;;;;;13.20;7.05;;;;;;;3.89;56.94;96930.44;5048399;28;20036;-78
2021/11/11 01:31:10;;;;;;;10.43;6.22;;;;;;;3.91;57.21;96927.69;5018168;28;20033;-76
2021/11/11 01:33:35;;;;;;;11.02;7.25;;;;;;;3.88;56.94;96926.09;5027946;28;20046;-79
2021/11/11 01:36:01;;;;;;;8.85;6.32;;;;;;;3.88;57.89;96933.19;5037823;28;20024;-78
2021/11/11 01:38:26;;;;;;;13.05;7.95;;;;;;;3.81;57.58;96930.06;5030107;28;20036;-80
2021/11/11 01:40:52;;;;;;;12.95;8.35;;;;;;;3.66;58.14;96934.56;5047798;28;20040;-77
2021/11/11 01:43:18;;;;;;;14.60;8.63;;;;;;;3.52;58.27;96930.09;5048028;28;20029;-79
2021/11/11 01:45:45;;;;;;;11.90;8.77;;;;;;;3.42;58.21;96930.69;5047757;28;20037;-79
2021/11/11 01:48:12;;;;;;;14.82;9.20;;;;;;;3.35;58.21;96924.06;5029555;28;20029;-78
2021/11/11 01:50:38;;;;;;;15.63;8.85;;;;;;;3.27;58.36;96918.38;5046350;28;20107;-77
2021/11/11 01:53:03;;;;;;;15.93;9.70;;;;;;;3.19;58.66;96918.84;5012930;28;20120;-78
2021/11/11 01:55:29;;;;;;;16.10;9.70;;;;;;;3.13;58.56;96917.41;5029477;28;20079;-78
2021/11/11 01:57:55;;;;;;;15.63;9.15;;;;;;;3.19;58.23;96924.16;5045868;28;20407;-78
2021/11/11 02:00:26;;;;;;;15.52;9.48;;;;;;;3.04;58.60;96920.63;5047533;28;20033;-79
2021/11/11 02:02:56;;;;;;;17.42;9.45;;;;;;;2.88;59.74;96923.34;5045972;28;20495;-78
2021/11/11 02:05:21;;;;;;;15.75;9.60;;;;;;;2.77;60.39;96919.56;5047111;28;20121;-78
2021/11/11 02:07:49;;;;;;;16.48;10.13;;;;;;;2.74;60.23;96910.94;5047661;28;20104;-77
2021/11/11 02:10:14;;;;;;;16.90;10.10;;;;;;;2.65;60.66;96920.28;5029370;28;20567;-77
2021/11/11 02:12:39;;;;;;;20.17;10.45;;;;;;;2.58;61.18;96904.75;5029766;28;20036;-77
2021/11/11 02:15:05;;;;;;;15.40;9.48;;;;;;;2.60;61.29;96915.25;5046005;28;20028;-78
2021/11/11 02:17:31;;;;;;;14.70;9.43;;;;;;;2.59;61.32;96909.13;5047412;28;20028;-78
2021/11/11 02:19:58;;;;;;;15.27;10.02;;;;;;;2.52;61.33;96913.06;5047335;28;20024;-77
2021/11/11 02:22:23;;;;;;;16.65;10.18;;;;;;;2.46;61.33;96906.34;5046416;28;20036;-78
2021/11/11 02:24:49;;;;;;;15.95;9.65;;;;;;;2.52;61.39;96902.47;5047401;28;20021;-77
2021/11/11 02:27:14;;;;;;;15.73;9.70;;;;;;;2.52;61.29;96912.19;5045391;28;20025;-76
2021/11/11 02:29:40;;;;;;;16.02;9.98;;;;;;;2.50;61.54;96909.63;5046113;28;20025;-78
2021/11/11 02:32:06;;;;;;;18.27;9.85;;;;;;;2.49;61.66;96909.72;5046529;28;20442;-78
2021/11/11 02:34:31;;;;;;;18.05;9.77;;;;;;;2.46;61.47;96900.19;5048024;28;20102;-77
2021/11/11 02:37:04;;;;;;;15.35;10.10;;;;;;;2.47;61.32;96909.81;5047588;28;20024;-80
2021/11/11 02:39:31;;;;;;;18.55;10.55;;;;;;;2.41;61.65;96910.19;5045817;28;20407;-77
2021/11/11 02:41:57;;;;;;;17.40;10.15;;;;;;;2.45;62.22;96911.72;5046482;28;20048;-77
2021/11/11 02:44:22;;;;;;;16.92;10.43;;;;;;;2.42;62.38;96906.63;5028327;28;20078;-78
2021/11/11 02:46:48;;;;;;;17.13;10.32;;;;;;;2.41;62.59;96907.53;5046488;28;20450;-77
2021/11/11 02:49:13;;;;;;;17.73;10.15;;;;;;;2.45;61.96;96907.25;5028332;28;20032;-77
2021/11/11 02:51:39;;;;;;;19.58;10.02;;;;;;;2.44;62.03;96907.34;5045588;28;20029;-77
2021/11/11 02:54:04;;;;;;;16.70;9.55;;;;;;;2.46;61.32;96908.13;5044868;28;20036;-77
2021/11/11 02:56:29;;;;;;;14.32;10.27;;;;;;;2.48;61.24;96906.25;5044571;28;20036;-77
2021/11/11 02:58:55;;;;;;;16.70;10.40;;;;;;;2.43;61.05;96908.31;5045303;28;20025;-76
2021/11/11 03:01:20;;;;;;;16.45;9.77;;;;;;;2.28;62.03;96899.44;5044868;28;20024;-76
2021/11/11 03:03:46;;;;;;;15.02;10.32;;;;;;;2.21;61.77;96901.59;5046181;28;20021;-77
2021/11/11 03:06:11;;;;;;;15.88;9.63;;;;;;;2.25;61.97;96899.63;5046178;28;20032;-77
2021/11/11 03:08:37;;;;;;;14.75;9.93;;;;;;;2.24;61.88;96897.94;5045076;28;20029;-76
2021/11/11 03:11:05;;;;;;;17.95;9.85;;;;;;;2.18;62.64;96899.13;5028176;28;20423;-78
2021/11/11 03:13:30;;;;;;;17.50;9.98;;;;;;;2.17;62.12;96893.00;5046144;28;20072;-78
2021/11/11 03:15:56;;;;;;;18.25;9.90;;;;;;;2.10;63.04;96895.13;5028183;28;20453;-78
2021/11/11 03:18:21;;;;;;;16.60;10.20;;;;;;;2.09;62.48;96895.22;5027808;28;20037;-77
2021/11/11 03:20:47;;;;;;;18.75;10.73;;;;;;;2.09;62.66;96900.53;5044795;28;20032;-77
2021/11/11 03:23:12;;;;;;;16.70;9.68;;;;;;;2.14;62.28;96887.88;5044645;28;20048;-77
2021/11/11 03:25:39;;;;;;;16.77;10.02;;;;;;;2.07;61.93;96890.03;5044885;28;20017;-81
2021/11/11 03:28:04;;;;;;;16.33;9.85;;;;;;;2.04;62.48;96890.19;5028173;28;20025;-78
2021/11/11 03:30:30;;;;;;;15.98;9.40;;;;;;;2.06;62.96;96892.75;5028309;28;20064;-76
2021/11/11 03:32:56;;;;;;;17.42;10.02;;;;;;;2.04;63.27;96887.56;5045509;28;20091;-77
2021/11/11 03:35:22;;;;;;;17.33;10.45;;;;;;;2.03;63.10;96883.19;5044327;28;20044;-77
2021/11/11 03:37:48;;;;;;;17.63;10.25;;;;;;;2.03;63.04;96885.81;5044501;28;20036;-78
2021/11/11 03:40:19;;;;;;;18.30;10.18;;;;;;;2.04;62.99;96878.75;5027100;28;20045;-79
2021/11/11 03:42:46;;;;;;;17.90;10.85;;;;;;;1.98;63.04;96883.44;5045136;28;20492;-77
2021/11/11 03:45:12;;;;;;;16.23;10.05;;;;;;;1.98;63.13;96874.66;5043600;28;20076;-76
2021/11/11 03:47:37;;;;;;;15.43;10.05;;;;;;;1.91;64.20;96868.00;5026690;28;20476;-77
2021/11/11 03:50:04;;;;;;;16.45;10.60;;;;;;;1.84;63.39;96865.72;5044471;28;20419;-76
2021/11/11 03:52:29;;;;;;;23.95;11.70;;;;;;;1.87;63.49;96858.56;5044684;28;20029;-76
2021/11/11 03:54:55;;;;;;;22.00;11.35;;;;;;;1.76;63.70;96852.06;5047311;28;20021;-78
2021/11/11 03:57:20;;;;;;;17.67;10.95;;;;;;;1.79;63.32;96856.34;5031617;28;20433;-77
2021/11/11 03:59:45;;;;;;;19.13;10.73;;;;;;;1.78;63.54;96857.25;5048341;28;20025;-79
2021/11/11 04:02:13;;;;;;;16.05;10.57;;;;;;;1.77;62.50;96861.72;5049718;28;20769;-78
2021/11/11 04:04:39;;;;;;;16.02;10.38;;;;;;;1.73;62.58;96853.09;5048266;28;20032;-76
2021/11/11 04:07:05;;;;;;;18.60;10.35;;;;;;;1.64;63.56;96852.75;5049340;28;20415;-77
2021/11/11 04:09:30;;;;;;;18.92;10.95;;;;;;;1.67;64.13;96852.59;5048098;28;20029;-77
2021/11/11 04:11:55;;;;;;;17.42;9.60;;;;;;;1.81;63.56;96860.59;5047876;28;20036;-78
2021/11/11 04:14:21;;;;;;;18.30;9.63;;;;;;;1.88;63.38;96854.94;5031229;28;20435;-78
2021/11/11 04:16:47;;;;;;;15.75;10.50;;;;;;;1.84;63.50;96856.91;5031030;28;20028;-78
2021/11/11 04:19:13;;;;;;;14.80;10.32;;;;;;;1.76;64.14;96851.22;5049258;28;20033;-76
2021/11/11 04:21:39;;;;;;;16.67;10.60;;;;;;;1.71;63.72;96843.53;5046851;28;20021;-77
2021/11/11 04:24:04;;;;;;;14.63;9.88;;;;;;;1.65;64.10;96843.88;5047979;28;20032;-77
2021/11/11 04:26:37;;;;;;;22.60;11.43;;;;;;;1.62;64.19;96841.41;5030681;28;20514;-76
2021/11/11 04:29:25;;;;;;;20.33;12.00;;;;;;;1.64;64.13;96842.19;5047174;28;20414;-78
2021/11/11 04:32:00;;;;;;;17.23;10.82;;;;;;;1.67;63.67;96836.72;5047137;28;20051;-76
2021/11/11 04:34:26;;;;;;;17.95;10.63;;;;;;;1.69;63.55;96837.50;5032434;28;20037;-78
2021/11/11 04:48:08;;;;;;;14.10;9.27;;;;;;;1.68;64.42;96844.56;5047593;28;20068;-79
2021/11/11 04:51:04;;;;;;;18.20;10.73;;;;;;;1.67;64.19;96842.00;5048047;28;20026;-79
2021/11/11 05:01:35;;;;;;;32.92;15.50;;;;;;;1.73;64.32;96839.00;5049025;28;20418;-77
2021/11/11 05:04:01;;;;;;;34.88;17.67;;;;;;;1.76;64.50;96836.19;5048022;28;20025;-78
2021/11/11 05:06:26;;;;;;;23.00;13.25;;;;;;;1.83;63.90;96840.22;5048338;28;20036;-77
2021/11/11 05:09:11;;;;;;;26.52;13.82;;;;;;;1.82;64.51;96829.72;5049731;28;20247;-78
2021/11/11 05:11:37;;;;;;;21.60;13.05;;;;;;;1.81;64.79;96836.78;5048534;28;20507;-77
2021/11/11 05:14:02;;;;;;;21.50;14.23;;;;;;;1.76;64.74;96830.06;5047264;28;20025;-79
2021/11/11 05:16:28;;;;;;;23.05;12.90;;;;;;;1.73;65.21;96828.44;5048707;28;20029;-77
2021/11/11 05:18:53;;;;;;;23.23;12.75;;;;;;;1.78;65.04;96833.47;5048324;28;20029;-78
2021/11/11 05:21:19;;;;;;;30.23;16.85;;;;;;;1.77;64.30;96835.28;5047656;28;20025;-79
2021/11/11 05:23:44;;;;;;;24.35;13.35;;;;;;;1.84;63.82;96828.66;5046667;28;20021;-81
2021/11/11 05:26:10;;;;;;;25.52;12.65;;;;;;;1.85;64.56;96830.38;5046802;28;20029;-78
2021/11/11 05:28:36;;;;;;;19.58;13.30;;;;;;;1.91;64.49;96828.31;5046879;28;20525;-79
2021/11/11 05:31:01;;;;;;;21.88;12.90;;;;;;;1.94;64.48;96833.44;5046046;28;20067;-78
2021/11/11 05:33:27;;;;;;;21.23;12.80;;;;;;;1.95;64.62;96830.69;5048094;28;20083;-76
2021/11/11 05:35:53;;;;;;;28.83;17.65;;;;;;;1.98;65.30;96837.63;5046146;28;20413;-79
2021/11/11 05:38:18;;;;;;;31.83;14.73;;;;;;;2.01;64.23;96836.59;5047776;28;20063;-78
2021/11/11 05:40:43;;;;;;;21.65;11.88;;;;;;;2.03;64.09;96829.41;5036913;28;20507;-78
2021/11/11 05:43:09;;;;;;;18.13;12.75;;;;;;;2.07;65.22;96834.44;5046456;28;20534;-80
2021/11/11 05:45:34;;;;;;;16.98;12.20;;;;;;;2.12;64.44;96830.66;5029736;28;20021;-79
2021/11/11 05:48:00;;;;;;;22.25;12.77;;;;;;;2.15;63.92;96833.13;5036767;28;20026;-79
2021/11/11 05:50:25;;;;;;;23.30;11.43;;;;;;;2.25;63.93;96831.66;5031435;28;20017;-82
2021/11/11 05:52:51;;;;;;;17.23;11.38;;;;;;;2.28;64.14;96834.13;5035743;28;20399;-82
2021/11/11 05:55:16;;;;;;;27.85;13.43;;;;;;;2.35;63.79;96826.66;5052904;28;20071;-79
2021/11/11 05:57:42;;;;;;;22.60;13.10;;;;;;;2.39;63.47;96837.91;5053093;28;20029;-80
2021/11/11 06:00:12;;;;;;;20.92;12.43;;;;;;;2.47;63.10;96833.88;5047552;28;20044;-80
2021/11/11 06:02:38;;;;;;;19.75;12.18;;;;;;;2.54;62.33;96841.44;5048684;28;20488;-80
2021/11/11 06:05:03;;;;;;;20.25;11.35;;;;;;;2.57;61.82;96834.19;5034087;28;20480;-81
2021/11/11 06:07:29;;;;;;;18.02;11.43;;;;;;;2.63;61.96;96835.59;5035927;28;20025;-80
2021/11/11 06:09:54;;;;;;;19.27;11.77;;;;;;;2.71;62.63;96828.03;5031405;28;20459;-80
2021/11/11 06:12:20;;;;;;;23.38;12.20;;;;;;;2.80;63.60;96841.66;5032542;28;20500;-80
2021/11/11 06:14:45;;;;;;;21.88;12.90;;;;;;;2.92;62.69;96842.69;5033320;28;20439;-78
2021/11/11 06:17:11;;;;;;;20.73;13.45;;;;;;;3.00;62.19;96844.91;5027693;28;20084;-79
2021/11/11 06:19:37;;;;;;;22.02;12.18;;;;;;;3.08;62.01;96847.91;5034834;28;20033;-78
2021/11/11 06:22:03;;;;;;;18.40;13.10;;;;;;;3.25;61.50;96846.88;5035660;28;20667;-79
2021/11/11 06:24:29;;;;;;;23.30;13.50;;;;;;;3.31;60.82;96849.13;5035757;28;20385;-77
2021/11/11 06:26:54;;;;;;;21.77;13.15;;;;;;;3.38;61.26;96846.09;5036023;28;20598;-78
2021/11/11 06:29:20;;;;;;;23.85;13.20;;;;;;;3.59;61.44;96859.81;5034726;28;20476;-78
2021/11/11 06:31:45;;;;;;;24.42;13.55;;;;;;;3.63;61.22;96847.19;5034292;28;20411;-79
2021/11/11 06:34:10;;;;;;;19.38;12.60;;;;;;;3.70;61.08;96849.34;5036271;28;20051;-78
2021/11/11 06:36:36;;;;;;;20.13;12.30;;;;;;;3.91;61.32;96853.34;5036626;28;20021;-79
2021/11/11 06:39:03;;;;;;;20.35;12.45;;;;;;;4.09;60.02;96851.31;5035295;28;20036;-78
2021/11/11 06:41:28;;;;;;;19.15;11.45;;;;;;;4.17;59.69;96848.13;5019304;28;20593;-78
2021/11/11 06:43:54;;;;;;;19.70;12.18;;;;;;;4.18;59.47;96847.19;5037190;28;20025;-76
2021/11/11 06:46:20;;;;;;;17.35;10.82;;;;;;;4.45;59.88;96856.91;5024457;28;20034;-77
2021/11/11 06:48:45;;;;;;;19.90;12.68;;;;;;;4.56;59.73;96848.22;5029175;28;20026;-76
2021/11/11 06:51:11;;;;;;;17.58;12.10;;;;;;;4.73;58.88;96839.09;5026571;28;20029;-77
2021/11/11 06:53:36;;;;;;;19.35;11.35;;;;;;;4.86;58.93;96844.41;5030789;28;20439;-77
2021/11/11 06:56:03;;;;;;;18.50;11.63;;;;;;;5.02;58.50;96836.22;5041764;28;20392;-78
2021/11/11 06:58:29;;;;;;;17.35;11.52;;;;;;;5.17;58.20;96841.41;5025572;28;20038;-82
2021/11/11 07:00:58;;;;;;;17.63;11.07;;;;;;;5.30;57.49;96834.25;5025140;28;20028;-79
2021/11/11 07:03:24;;;;;;;15.05;10.65;;;;;;;5.38;58.01;96830.22;5027125;28;20060;-79
2021/11/11 07:05:49;;;;;;;16.92;11.48;;;;;;;5.30;57.82;96826.25;5029479;28;20029;-79
2021/11/11 07:08:15;;;;;;;15.82;10.85;;;;;;;5.35;57.99;96820.66;5022646;28;20399;-79
2021/11/11 07:10:42;;;;;;;17.15;12.10;;;;;;;5.29;57.63;96823.72;5032095;28;20025;-77
2021/11/11 07:13:08;;;;;;;17.38;11.45;;;;;;;5.37;58.09;96825.84;5015723;28;20397;-79
2021/11/11 07:15:33;;;;;;;18.73;10.35;;;;;;;5.55;57.18;96811.22;5043522;28;20075;-83
2021/11/11 07:18:00;;;;;;;15.35;9.50;;;;;;;5.65;55.76;96813.19;5036986;28;20033;-78
2021/11/11 07:20:25;;;;;;;14.52;10.35;;;;;;;5.48;54.68;96801.13;5034909;28;20472;-78
2021/11/11 07:22:54;;;;;;;12.30;9.57;;;;;;;5.41;55.79;96809.56;5032821;28;20056;-77
2021/11/11 07:25:19;;;;;;;15.57;9.80;;;;;;;5.49;54.92;96792.16;5036159;28;20028;-76
2021/11/11 07:27:46;;;;;;;12.50;8.20;;;;;;;5.46;55.23;96798.56;5042609;28;20032;-77
2021/11/11 07:30:14;;;;;;;17.83;9.85;;;;;;;5.54;55.29;96787.38;5047992;28;20108;-78
2021/11/11 07:32:39;;;;;;;12.43;8.93;;;;;;;5.63;54.84;96797.34;5050029;28;20033;-78
2021/11/11 07:35:08;;;;;;;18.60;10.55;;;;;;;5.57;55.06;96790.66;5047491;28;20056;-79
2021/11/11 07:37:34;;;;;;;15.48;10.40;;;;;;;5.61;55.22;96790.44;5035744;28;20045;-78
2021/11/11 07:39:59;;;;;;;14.73;8.95;;;;;;;5.73;54.56;96783.34;5038733;28;20571;-79
2021/11/11 07:42:25;;;;;;;11.02;8.88;;;;;;;5.71;55.17;96780.81;5036810;28;20029;-78
2021/11/11 07:44:51;;;;;;;12.23;8.63;;;;;;;5.72;54.54;96779.00;5038770;28;20067;-78
2021/11/11 07:47:24;;;;;;;13.13;8.75;;;;;;;5.66;54.66;96778.47;5038608;28;20575;-79
2021/11/11 07:49:49;;;;;;;13.05;8.43;;;;;;;5.67;54.59;96779.34;5037734;28;20086;-78
2021/11/11 07:52:15;;;;;;;10.98;7.78;;;;;;;5.65;54.88;96775.94;5038103;28;20029;-79
2021/11/11 07:54:40;;;;;;;12.52;8.27;;;;;;;5.64;54.38;96766.25;5036046;28;20029;-78
2021/11/11 07:57:06;;;;;;;12.63;9.02;;;;;;;5.71;55.74;96769.31;5037020;28;20056;-78
2021/11/11 07:59:31;;;;;;;16.35;9.30;;;;;;;5.76;55.66;96772.47;5041958;28;20388;-78
2021/11/11 08:01:57;;;;;;;23.75;10.10;;;;;;;5.87;56.11;96774.34;5049228;28;20501;-78
2021/11/11 08:04:22;;;;;;;12.82;8.82;;;;;;;5.88;55.32;96771.56;5038497;28;20026;-78
2021/11/11 08:06:48;;;;;;;26.38;8.98;;;;;;;5.91;54.49;96771.34;5034029;28;20488;-79
2021/11/11 08:09:13;;;;;;;15.25;8.43;;;;;;;5.81;54.51;96759.66;5038267;28;20431;-80
2021/11/11 08:11:39;;;;;;;9.43;7.55;;;;;;;5.81;54.51;96755.22;5044792;28;20445;-82
2021/11/11 08:14:06;;;;;;;11.30;8.20;;;;;;;5.94;54.74;96759.59;5039149;28;20395;-80
2021/11/11 08:16:31;;;;;;;16.25;10.60;;;;;;;6.14;56.02;96760.78;5037414;28;20021;-81
2021/11/11 08:18:58;;;;;;;18.73;10.32;;;;;;;6.25;54.77;96754.66;5036495;28;20051;-81
2021/11/11 08:21:24;;;;;;;20.00;10.00;;;;;;;6.26;55.03;96753.69;5041679;28;20047;-82
2021/11/11 08:23:49;;;;;;;11.77;9.15;;;;;;;6.30;55.05;96749.81;5046832;28;20419;-79
2021/11/11 08:26:14;;;;;;;15.27;10.15;;;;;;;6.45;54.32;96746.09;5047203;28;20511;-78
2021/11/11 08:28:40;;;;;;;16.45;9.27;;;;;;;6.54;54.17;96742.72;5048077;28;20490;-79
2021/11/11 08:31:05;;;;;;;12.43;7.65;;;;;;;6.59;52.85;96734.34;5048977;28;20158;-78
2021/11/11 08:33:31;;;;;;;12.93;8.32;;;;;;;6.60;53.16;96738.72;5036875;28;20375;-78
2021/11/11 08:35:56;;;;;;;12.90;7.28;;;;;;;6.66;53.58;96738.22;5051311;28;20400;-79
2021/11/11 08:38:22;;;;;;;12.90;8.38;;;;;;;6.80;52.81;96737.16;5047582;28;20087;-78
2021/11/11 08:40:48;;;;;;;13.43;8.13;;;;;;;6.82;52.29;96729.88;5044552;28;20025;-78
2021/11/11 08:43:13;;;;;;;11.45;7.32;;;;;;;6.94;51.83;96733.41;5038273;28;20025;-82
2021/11/11 08:45:39;;;;;;;14.65;8.90;;;;;;;6.98;51.13;96726.84;5047701;28;20041;-79
2021/11/11 08:48:04;;;;;;;11.68;8.55;;;;;;;6.32;52.75;96730.22;5035172;28;20033;-78
2021/11/11 08:50:31;;;;;;;12.20;8.30;;;;;;;6.50;53.43;96733.25;5031769;28;20405;-78
2021/11/11 08:52:58;;;;;;;11.70;8.25;;;;;;;6.70;53.00;96723.69;5027870;28;20036;-79
2021/11/11 08:55:25;;;;;;;13.40;8.40;;;;;;;6.74;51.39;96722.47;5047123;28;20029;-77
2021/11/11 08:57:51;;;;;;;9.82;8.80;;;;;;;6.78;52.03;96726.63;5046844;28;20025;-79
2021/11/11 09:00:18;;;;;;;15.38;9.77;;;;;;;6.78;52.36;96720.44;5046986;28;21174;-80
2021/11/11 09:02:44;;;;;;;12.52;8.60;;;;;;;6.99;51.22;96719.69;5032339;28;20029;-78
2021/11/11 09:05:10;;;;;;;12.00;8.07;;;;;;;7.07;50.18;96709.25;5045863;28;20021;-79
2021/11/11 09:07:38;;;;;;;12.68;9.02;;;;;;;7.11;49.97;96712.53;5035820;28;20018;-79
2021/11/11 09:10:08;;;;;;;13.05;8.35;;;;;;;7.13;50.27;96707.91;5038269;28;20032;-78
2021/11/11 09:12:33;;;;;;;16.17;10.38;;;;;;;7.07;50.15;96709.25;5028561;28;20408;-79
2021/11/11 09:14:59;;;;;;;17.02;11.48;;;;;;;7.08;51.04;96702.13;5044289;28;20490;-80
2021/11/11 09:17:24;;;;;;;17.52;10.32;;;;;;;7.13;50.05;96697.22;5047796;28;20033;-79
2021/11/11 09:19:50;;;;;;;12.48;9.90;;;;;;;7.27;50.17;96699.63;5047996;28;20056;-79
2021/11/11 09:22:15;;;;;;;15.18;10.07;;;;;;;7.37;50.16;96690.88;5048372;28;20021;-79
2021/11/11 09:24:41;;;;;;;15.15;9.35;;;;;;;7.39;50.18;96688.91;5045080;28;20484;-77
2021/11/11 09:27:06;;;;;;;14.52;9.00;;;;;;;7.61;49.33;96687.16;5030142;28;20411;-80
2021/11/11 09:29:32;;;;;;;14.82;10.13;;;;;;;7.61;49.04;96681.84;5047027;28;20048;-78
2021/11/11 09:31:57;;;;;;;20.92;10.57;;;;;;;7.77;49.54;96678.72;5048843;28;20025;-79
2021/11/11 09:34:22;;;;;;;14.02;7.90;;;;;;;7.47;47.56;96672.28;5042479;28;20036;-80
2021/11/11 09:36:48;;;;;;;13.93;8.80;;;;;;;7.48;48.27;96661.47;5038655;28;20021;-81
2021/11/11 09:39:13;;;;;;;14.85;8.73;;;;;;;7.36;48.52;96660.69;5048172;28;20021;-81
2021/11/11 09:41:39;;;;;;;14.70;10.25;;;;;;;7.38;49.34;96658.69;5030846;28;20029;-82
2021/11/11 09:44:05;;;;;;;13.73;9.48;;;;;;;7.37;48.16;96656.16;5045215;28;20043;-80
2021/11/11 09:46:30;;;;;;;18.80;10.25;;;;;;;7.43;48.86;96655.69;5044558;28;20043;-80
2021/11/11 09:48:56;;;;;;;20.35;9.50;;;;;;;7.48;48.58;96650.78;5038999;28;20108;-81
2021/11/11 09:51:21;;;;;;;14.40;9.77;;;;;;;7.56;48.19;96643.97;5047540;28;20025;-81
2021/11/11 09:59:01;;;;;;;15.57;8.63;;;;;;;7.80;47.93;96633.06;5047435;28;20395;-81
2021/11/11 10:01:26;;;;;;;14.50;8.70;;;;;;;7.82;48.80;96630.25;5033125;28;20108;-80
2021/11/11 10:03:52;;;;;;;14.20;8.90;;;;;;;7.93;48.62;96629.34;5035634;28;20083;-81
2021/11/11 10:06:21;;;;;;;14.80;9.07;;;;;;;8.01;47.89;96616.19;5039786;28;20024;-80
2021/11/11 10:08:48;;;;;;;12.88;8.93;;;;;;;8.01;47.59;96619.69;5039118;28;20573;-80
2021/11/11 10:11:32;;;;;;;13.68;8.63;;;;;;;8.00;47.56;96607.31;5033263;28;20060;-79
2021/11/11 10:14:01;;;;;;;17.80;10.70;;;;;;;8.15;47.02;96604.28;5045188;28;20025;-80
2021/11/11 10:16:27;;;;;;;20.38;11.25;;;;;;;8.12;47.54;96597.41;5028519;28;20029;-81
2021/11/11 10:18:54;;;;;;;15.25;10.75;;;;;;;8.20;47.10;96596.72;5035070;28;20040;-81
2021/11/11 10:24:32;;;;;;;14.73;9.23;;;;;;;8.25;47.92;96585.63;5040418;28;20087;-81
2021/11/11 10:27:24;;;;;;;15.02;9.38;;;;;;;8.32;47.65;96583.28;5037393;28;20021;-81
2021/11/11 10:30:21;;;;;;;15.15;9.90;;;;;;;8.44;48.03;96576.84;5045600;28;20488;-81
2021/11/11 10:32:47;;;;;;;17.02;9.80;;;;;;;8.53;47.62;96576.03;5045119;28;20037;-80
2021/11/11 10:35:15;;;;;;;14.68;9.10;;;;;;;8.61;46.84;96575.38;5039106;28;20536;-80
2021/11/11 10:37:43;;;;;;;13.45;9.50;;;;;;;8.63;46.47;96576.09;5042890;28;20411;-81
2021/11/11 10:40:12;;;;;;;13.93;9.32;;;;;;;8.62;46.62;96576.22;5034955;28;20036;-79
2021/11/11 10:42:39;;;;;;;13.07;9.93;;;;;;;8.57;47.61;96568.63;5037886;28;20042;-80
2021/11/11 10:45:08;;;;;;;17.38;9.35;;;;;;;8.60;47.34;96564.81;5040627;28;20029;-80
2021/11/11 10:47:34;;;;;;;13.57;9.57;;;;;;;8.75;46.60;96566.09;5037902;28;20108;-80
2021/11/11 10:50:00;;;;;;;15.35;10.02;;;;;;;8.87;46.29;96553.47;5033016;28;20456;-79
2021/11/11 10:52:27;;;;;;;16.55;10.35;;;;;;;8.98;45.57;96555.16;5035074;28;20021;-81
2021/11/11 10:55:06;;;;;;;19.08;10.65;;;;;;;9.06;46.44;96546.44;5029681;28;20385;-80
2021/11/11 10:57:49;;;;;;;13.93;10.27;;;;;;;9.15;45.49;96550.13;5045935;28;20053;-79
2021/11/11 11:00:19;;;;;;;15.40;10.18;;;;;;;9.30;44.99;96544.34;5042184;28;20538;-79
2021/11/11 11:02:51;;;;;;;20.27;11.05;;;;;;;9.28;45.08;96545.31;5025921;28;20504;-79
2021/11/11 11:05:18;;;;;;;17.35;10.45;;;;;;;9.40;44.80;96542.50;5045926;28;20068;-80
2021/11/11 11:07:46;;;;;;;16.10;11.48;;;;;;;9.33;45.25;96531.53;5032868;28;20033;-84
2021/11/11 11:10:16;;;;;;;15.80;10.90;;;;;;;9.43;45.87;96525.31;5034824;28;20029;-83
2021/11/11 11:12:42;;;;;;;17.50;11.57;;;;;;;9.64;46.35;96530.50;5035064;28;20539;-81
2021/11/11 11:15:08;;;;;;;18.50;11.07;;;;;;;9.73;45.66;96510.88;5033087;28;20064;-78
2021/11/11 11:17:33;;;;;;;18.70;12.35;;;;;;;9.80;45.58;96515.66;5033009;28;20034;-79
2021/11/11 11:20:21;;;;;;;23.48;12.45;;;;;;;9.93;45.24;96510.81;5042837;28;20025;-80
2021/11/11 11:22:46;;;;;;;18.50;10.65;;;;;;;10.06;46.06;96509.66;5040041;28;20407;-80
2021/11/11 11:25:12;;;;;;;29.60;11.00;;;;;;;10.21;45.66;96501.94;5033269;28;20017;-83
2021/11/11 11:27:37;;;;;;;17.02;11.70;;;;;;;10.19;43.71;96504.78;5036287;28;20076;-82
2021/11/11 11:30:15;;;;;;;16.83;11.55;;;;;;;10.10;44.09;96492.25;5028955;28;20529;-82
2021/11/11 11:32:43;;;;;;;18.00;11.80;;;;;;;10.17;44.87;96490.69;5041259;28;20108;-83
2021/11/11 11:35:09;;;;;;;14.93;10.77;;;;;;;10.31;44.40;96491.19;5038167;28;20041;-81
2021/11/11 11:37:37;;;;;;;22.15;11.50;;;;;;;10.36;44.37;96483.53;5034564;28;20025;-83
2021/11/11 11:40:14;;;;;;;16.73;10.40;;;;;;;10.47;45.03;96480.69;5028909;28;20041;-82
2021/11/11 11:42:44;;;;;;;25.33;11.25;;;;;;;10.59;43.57;96480.47;5033782;28;20495;-82
2021/11/11 11:45:11;;;;;;;17.75;10.75;;;;;;;10.70;43.36;96469.53;5043529;28;20060;-82
2021/11/11 11:50:17;;;;;;;19.52;11.13;;;;;;;10.70;44.43;96464.16;5037931;28;20030;-82
2021/11/11 11:52:46;;;;;;;15.95;10.63;;;;;;;10.79;43.04;96472.28;5034297;28;20030;-81
2021/11/11 11:55:20;;;;;;;17.60;11.00;;;;;;;10.76;43.39;96468.06;5034690;28;20043;-82
2021/11/11 12:03:41;;;;;;;17.67;11.13;;;;;;;11.05;43.49;96450.88;5044259;28;20096;-81